.
WxDataArchive / Data Records for 2007-07-10
2007-07-09 July 2007 2007-07-11

Data Records for Tuesday, 10 July 2007

Time	Temp	Chill	HIndex	Humid	Dewpt	 Wind 	HiWind	WindDir	Rain 	Barom 
-----	----	-----	------	-----	-----	------	------	-------	-----	----- 
00:00	74.4	74.4	74.4	73	65.2	0	0	---	0.00	29.802 
00:05	74.4	74.4	74.4	73	65.2	0	1	248	0.00	29.800 
00:10	74.4	74.4	74.4	73	65.2	0	0	---	0.00	29.800 
00:15	74.4	74.4	74.4	74	65.6	0	0	---	0.00	29.799 
00:20	74.2	74.2	74.2	74	65.4	0	0	---	0.00	29.799 
00:25	74.2	74.2	74.2	74	65.4	0	0	---	0.00	29.801 
00:30	74.2	74.2	74.2	74	65.4	0	0	---	0.00	29.804 
00:35	74.0	74.0	74.0	75	65.6	0	0	---	0.00	29.803 
00:40	73.9	73.9	73.9	75	65.5	0	0	---	0.00	29.800 
00:45	73.7	73.7	73.7	76	65.6	0	0	---	0.00	29.799 
00:50	73.5	73.5	73.5	77	65.8	0	0	---	0.00	29.799 
00:55	73.3	73.3	73.3	77	65.6	0	0	---	0.00	29.796 
01:00	73.3	73.3	73.3	77	65.6	0	0	---	0.00	29.795 
01:05	73.2	73.2	73.2	78	65.9	0	0	---	0.00	29.800 
01:10	73.0	73.0	73.0	78	65.7	0	0	---	0.00	29.799 
01:15	73.0	73.0	73.0	79	66.1	0	0	---	0.00	29.799 
01:20	72.8	72.8	72.8	79	65.9	0	0	---	0.00	29.797 
01:25	72.7	72.7	72.7	79	65.8	0	0	---	0.00	29.792 
01:30	72.5	72.5	72.5	80	66.0	0	0	---	0.00	29.792 
01:35	72.5	72.5	72.5	80	66.0	0	0	---	0.00	29.790 
01:40	72.3	72.3	72.3	80	65.8	0	0	---	0.00	29.790 
01:45	72.1	72.1	72.1	81	65.9	0	0	---	0.00	29.791 
01:50	72.0	72.0	72.0	81	65.8	0	0	---	0.00	29.791 
01:55	72.0	72.0	72.0	82	66.2	0	0	---	0.00	29.792 
02:00	72.0	72.0	72.0	82	66.2	0	0	---	0.00	29.798 
02:05	72.0	72.0	72.0	82	66.2	0	0	---	0.00	29.804 
02:10	72.0	72.0	72.0	82	66.2	0	0	---	0.00	29.802 
02:15	72.0	72.0	72.0	82	66.2	0	0	---	0.00	29.801 
02:20	72.0	72.0	72.0	82	66.2	0	1	248	0.00	29.798 
02:25	72.0	72.0	72.0	83	66.5	0	0	---	0.00	29.799 
02:30	72.0	72.0	72.0	83	66.5	0	0	---	0.00	29.801 
02:35	72.1	72.1	72.1	83	66.6	0	1	248	0.00	29.803 
02:40	72.3	72.3	72.3	82	66.5	0	0	---	0.00	29.805 
02:45	72.3	72.3	72.3	82	66.5	0	1	248	0.00	29.806 
02:50	72.5	72.5	72.5	81	66.3	0	0	---	0.00	29.811 
02:55	72.7	72.7	72.7	81	66.5	0	0	---	0.00	29.813 
03:00	72.7	72.7	72.7	81	66.5	0	0	---	0.00	29.814 
03:05	72.7	72.7	72.7	81	66.5	0	0	---	0.00	29.805 
03:10	72.5	72.5	72.5	81	66.3	0	0	---	0.00	29.805 
03:15	72.5	72.5	72.5	81	66.3	0	0	---	0.00	29.805 
03:20	72.3	72.3	72.3	81	66.1	0	0	---	0.00	29.809 
03:25	72.3	72.3	72.3	82	66.5	0	0	---	0.00	29.812 
03:30	72.1	72.1	72.1	82	66.3	0	0	---	0.00	29.815 
03:35	72.0	72.0	72.0	83	66.5	0	0	---	0.00	29.815 
03:40	72.0	72.0	72.0	83	66.5	0	0	---	0.00	29.815 
03:45	71.8	71.8	71.8	83	66.3	0	0	---	0.00	29.815 
03:50	71.8	71.8	71.8	84	66.7	0	0	---	0.00	29.815 
03:55	71.6	71.6	71.6	84	66.5	0	0	---	0.00	29.817 
04:00	71.6	71.6	71.6	84	66.5	0	0	---	0.00	29.815 
04:05	71.6	71.6	71.6	84	66.5	0	0	---	0.00	29.815 
04:10	71.5	71.5	71.5	84	66.4	0	0	---	0.00	29.815 
04:15	71.3	71.3	71.3	84	66.2	0	0	---	0.00	29.814 
04:20	71.3	71.3	71.3	85	66.5	0	0	---	0.00	29.817 
04:25	71.3	71.3	71.3	85	66.5	0	0	---	0.00	29.817 
04:30	71.5	71.5	71.5	85	66.7	0	0	---	0.00	29.816 
04:35	71.5	71.5	71.5	85	66.7	0	0	---	0.00	29.816 
04:40	71.3	71.3	71.3	85	66.5	0	0	---	0.00	29.817 
04:45	71.3	71.3	71.3	85	66.5	0	0	---	0.00	29.816 
04:50	71.1	71.1	71.1	86	66.7	0	0	---	0.00	29.817 
04:55	71.1	71.1	71.1	86	66.7	0	0	---	0.00	29.818 
05:00	70.9	70.9	70.9	86	66.5	0	0	---	0.00	29.817 
05:05	70.8	70.8	70.8	87	66.7	0	0	---	0.00	29.821 
05:10	70.8	70.8	70.8	87	66.7	0	1	248	0.00	29.821 
05:15	70.8	70.8	70.8	87	66.7	0	1	248	0.00	29.822 
05:20	70.8	70.8	70.8	87	66.7	0	0	---	0.00	29.824 
05:25	70.8	70.8	70.8	88	67.1	0	0	---	0.00	29.827 
05:30	70.8	70.8	70.8	87	66.7	0	0	---	0.00	29.827 
05:35	70.8	70.8	70.8	87	66.7	0	0	---	0.00	29.832 
05:40	70.9	70.9	70.9	87	66.8	0	0	---	0.00	29.832 
05:45	71.1	71.1	71.1	87	67.0	0	0	---	0.00	29.829 
05:50	71.1	71.1	71.1	87	67.0	0	0	---	0.00	29.825 
05:55	71.3	71.3	71.3	87	67.2	0	0	---	0.00	29.828 
06:00	71.3	71.3	71.3	87	67.2	0	1	248	0.00	29.831 
06:05	71.5	71.5	71.5	86	67.1	0	1	248	0.00	29.832 
06:10	71.6	71.6	71.6	86	67.2	0	1	248	0.00	29.835 
06:15	72.0	72.0	72.0	85	67.2	0	1	248	0.00	29.834 
06:20	72.3	72.3	72.3	84	67.2	0	2	248	0.00	29.836 
06:25	72.5	72.5	72.5	83	67.0	0	1	248	0.00	29.834 
06:30	73.0	73.0	73.0	83	67.5	0	1	248	0.00	29.835 
06:35	73.3	73.3	73.3	81	67.1	0	1	248	0.00	29.835 
06:40	73.7	73.7	73.7	80	67.1	0	1	248	0.00	29.836 
06:45	74.2	74.2	74.2	79	67.3	0	2	248	0.00	29.838 
06:50	74.6	74.6	74.6	79	67.6	0	1	248	0.00	29.836 
06:55	75.1	75.1	76.0	78	67.8	0	1	248	0.00	29.836 
07:00	75.3	75.3	76.4	76	67.2	0	2	248	0.00	29.834 
07:05	75.6	75.6	76.9	75	67.1	0	2	248	0.00	29.837 
07:10	76.0	76.0	77.4	74	67.1	0	2	248	0.00	29.835 
07:15	76.5	76.5	78.1	73	67.2	1	4	248	0.00	29.836 
07:20	76.8	76.8	78.5	73	67.5	1	3	248	0.00	29.834 
07:25	77.2	77.2	79.0	72	67.5	1	3	270	0.00	29.835 
07:30	77.7	77.7	79.7	71	67.5	1	4	248	0.00	29.836 
07:35	78.1	78.1	80.2	70	67.5	1	3	248	0.00	29.836 
07:40	78.5	78.5	80.7	70	67.9	1	3	248	0.00	29.836 
07:45	78.8	78.8	81.1	69	67.7	0	2	248	0.00	29.833 
07:50	79.2	79.2	81.7	70	68.5	0	2	248	0.00	29.832 
07:55	79.6	79.6	82.2	69	68.5	1	3	248	0.00	29.833 
08:00	79.8	79.8	82.5	69	68.7	1	5	270	0.00	29.831 
08:05	80.1	80.1	82.9	68	68.6	1	4	248	0.00	29.835 
08:10	80.3	80.3	83.2	68	68.8	1	4	248	0.00	29.834 
08:15	80.7	80.7	83.7	67	68.7	1	3	248	0.00	29.834 
08:20	81.1	81.1	84.0	65	68.2	1	3	338	0.00	29.834 
08:25	81.4	81.4	84.6	66	68.9	1	3	292	0.00	29.833 
08:30	81.8	81.8	85.1	65	68.9	1	4	248	0.00	29.829 
08:35	82.0	82.0	85.4	65	69.0	1	3	248	0.00	29.828 
08:40	82.2	82.2	85.9	66	69.7	1	3	292	0.00	29.824 
08:45	82.6	82.6	86.2	64	69.2	1	3	292	0.00	29.826 
08:50	83.0	83.0	86.9	64	69.5	1	3	248	0.00	29.829 
08:55	83.2	83.2	86.9	63	69.3	1	4	248	0.00	29.830 
09:00	83.2	83.2	86.9	63	69.3	1	3	270	0.00	29.830 
09:05	83.6	83.6	87.9	64	70.1	1	3	270	0.00	29.833 
09:10	83.8	83.8	87.7	62	69.4	1	3	248	0.00	29.828 
09:15	84.3	84.3	89.2	64	70.8	0	2	248	0.00	29.827 
09:20	84.5	84.5	88.7	61	69.5	1	4	248	0.00	29.827 
09:25	84.7	84.7	89.3	62	70.2	1	5	248	0.00	29.822 
09:30	84.9	84.9	89.1	60	69.4	1	6	135	0.00	29.820 
09:35	84.7	84.7	89.0	61	69.7	1	3	248	0.00	29.818 
09:40	85.1	85.1	89.8	61	70.1	1	4	248	0.00	29.817 
09:45	84.9	84.9	89.4	61	69.9	1	4	270	0.00	29.815 
09:50	85.5	85.5	90.5	61	70.5	0	2	270	0.00	29.810 
09:55	86.1	86.1	91.3	60	70.6	1	3	270	0.00	29.809 
10:00	86.1	86.1	90.9	59	70.1	2	3	292	0.00	29.807 
10:05	86.3	86.3	90.6	57	69.2	2	4	270	0.00	29.808 
10:10	86.1	86.1	90.2	57	69.1	2	5	248	0.00	29.806 
10:15	86.3	86.3	90.9	58	69.7	1	3	248	0.00	29.803 
10:20	86.1	86.1	89.9	56	68.5	1	3	248	0.00	29.803 
10:25	85.9	85.9	89.2	55	67.8	2	4	270	0.00	29.802 
10:30	86.1	86.1	90.6	58	69.6	1	3	248	0.00	29.799 
10:35	86.5	86.5	90.6	56	68.9	2	5	225	0.00	29.798 
10:40	87.2	87.2	91.5	55	69.0	1	7	90	0.00	29.796 
10:45	87.8	87.8	91.4	52	67.9	1	3	292	0.00	29.793 
10:50	88.0	88.0	92.2	53	68.7	2	6	248	0.00	29.790 
10:55	87.6	87.6	91.8	54	68.9	1	5	292	0.00	29.789 
11:00	88.2	88.2	92.5	53	68.9	1	4	315	0.00	29.785 
11:05	88.2	88.2	92.1	52	68.3	1	4	315	0.00	29.787 
11:10	87.6	87.6	91.5	53	68.3	1	3	292	0.00	29.787 
11:15	88.0	88.0	92.6	54	69.2	1	4	248	0.00	29.785 
11:20	88.4	88.4	91.7	50	67.4	2	7	248	0.00	29.785 
11:25	88.4	88.4	91.7	50	67.4	2	6	270	0.00	29.785 
11:30	88.6	88.6	92.1	50	67.5	3	10	270	0.00	29.785 
11:35	88.8	88.8	92.8	51	68.3	2	5	248	0.00	29.785 
11:40	89.5	89.5	93.7	50	68.4	2	7	248	0.00	29.784 
11:45	89.3	89.3	92.9	49	67.6	3	11	270	0.00	29.785 
11:50	89.0	89.0	92.4	49	67.3	3	7	90	0.00	29.784 
11:55	89.0	89.0	92.0	48	66.7	4	10	270	0.00	29.787 
12:00	88.4	88.4	91.0	48	66.2	3	6	248	0.00	29.786 
12:05	88.6	88.6	91.7	49	67.0	2	8	270	0.00	29.787 
12:10	89.5	89.5	92.1	46	65.9	3	7	270	0.00	29.783 
12:15	89.0	89.0	92.0	48	66.7	2	5	270	0.00	29.783 
12:20	88.8	88.8	91.3	47	65.9	3	10	248	0.00	29.776 
12:25	89.0	89.0	91.2	46	65.5	3	7	270	0.00	29.773 
12:30	89.3	89.3	92.1	47	66.4	3	9	270	0.00	29.771 
12:35	89.7	89.7	92.4	46	66.1	3	7	248	0.00	29.769 
12:40	89.7	89.7	92.4	46	66.1	3	8	270	0.00	29.768 
12:45	89.7	89.7	92.8	47	66.7	3	7	270	0.00	29.765 
12:50	90.1	90.1	92.7	45	65.9	2	9	112	0.00	29.765 
12:55	89.0	89.0	91.2	46	65.5	2	6	270	0.00	29.762 
13:00	89.7	89.7	92.0	45	65.5	3	12	270	0.00	29.761 
13:05	90.1	90.1	93.1	46	66.5	3	12	270	0.00	29.760 
13:10	89.3	89.3	91.4	45	65.1	3	9	270	0.00	29.761 
13:15	88.8	88.8	90.9	46	65.3	3	6	270	0.00	29.757 
13:20	89.5	89.5	91.7	45	65.3	3	6	270	0.00	29.753 
13:25	89.7	89.7	92.4	46	66.1	2	5	248	0.00	29.753 
13:30	90.5	90.5	92.9	44	65.6	2	9	248	0.00	29.753 
13:35	89.9	89.9	91.6	43	64.4	3	7	270	0.00	29.752 
13:40	90.5	90.5	92.9	44	65.6	2	10	248	0.00	29.753 
13:45	89.9	89.9	92.3	45	65.7	2	5	248	0.00	29.750 
13:50	90.1	90.1	93.1	46	66.5	2	5	270	0.00	29.742 
13:55	90.7	90.7	92.9	43	65.1	3	5	270	0.00	29.740 
14:00	91.0	91.0	93.8	44	66.0	2	5	270	0.00	29.739 
14:05	91.4	91.4	93.6	42	65.0	3	7	270	0.00	29.738 
14:10	91.6	91.6	93.9	42	65.2	3	7	270	0.00	29.736 
14:15	91.6	91.6	93.9	42	65.2	3	7	270	0.00	29.733 
14:20	91.6	91.6	93.9	42	65.2	2	4	270	0.00	29.729 
14:25	91.6	91.6	93.5	41	64.5	3	6	248	0.00	29.731 
14:30	90.7	90.7	93.3	44	65.7	3	6	248	0.00	29.733 
14:35	91.2	91.2	93.3	42	64.9	2	7	270	0.00	29.732 
14:40	91.2	91.2	92.9	41	64.2	3	6	270	0.00	29.731 
14:45	91.4	91.4	93.2	41	64.3	4	7	270	0.00	29.729 
14:50	91.4	91.4	93.6	42	65.0	3	7	248	0.00	29.729 
14:55	90.3	90.3	92.2	43	64.7	3	7	248	0.00	29.725 
15:00	89.9	89.9	91.6	43	64.4	4	7	270	0.00	29.724 
15:05	89.7	89.7	91.6	44	64.8	3	5	270	0.00	29.724 
15:10	89.5	89.5	91.3	44	64.7	4	9	270	0.00	29.722 
15:15	90.1	90.1	93.1	46	66.5	2	6	248	0.00	29.714 
15:20	89.9	89.9	91.9	44	65.0	3	11	270	0.00	29.712 
15:25	90.3	90.3	92.2	43	64.7	3	7	270	0.00	29.709 
15:30	90.3	90.3	92.2	43	64.7	3	7	270	0.00	29.704 
15:35	91.2	91.2	93.7	43	65.5	2	6	270	0.00	29.705 
15:40	91.4	91.4	92.8	40	63.6	2	7	270	0.00	29.701 
15:45	91.0	91.0	92.6	41	64.0	3	6	270	0.00	29.698 
15:50	91.0	91.0	93.0	42	64.7	4	11	270	0.00	29.695 
15:55	90.5	90.5	92.5	43	64.9	3	5	270	0.00	29.693 
16:00	90.3	90.3	91.8	42	64.0	3	6	270	0.00	29.693 
16:05	89.9	89.9	91.6	43	64.4	3	12	248	0.00	29.694 
16:10	89.7	89.7	92.0	45	65.5	2	4	248	0.00	29.692 
16:15	89.9	89.9	91.6	43	64.4	3	9	270	0.00	29.690 
16:20	89.9	89.9	91.2	42	63.7	3	5	270	0.00	29.683 
16:25	89.7	89.7	91.3	43	64.2	3	8	270	0.00	29.682 
16:30	89.5	89.5	91.3	44	64.7	2	6	248	0.00	29.681 
16:35	88.8	88.8	90.2	44	64.0	3	10	248	0.00	29.682 
16:40	88.8	88.8	89.9	43	63.4	2	6	270	0.00	29.679 
16:45	88.6	88.6	89.6	43	63.2	4	7	270	0.00	29.679 
16:50	88.6	88.6	89.6	43	63.2	3	7	248	0.00	29.679 
16:55	88.6	88.6	89.9	44	63.9	4	10	248	0.00	29.677 
17:00	88.6	88.6	89.9	44	63.9	3	6	270	0.00	29.670 
17:05	89.0	89.0	90.5	44	64.2	2	6	270	0.00	29.669 
17:10	88.8	88.8	89.9	43	63.4	3	7	270	0.00	29.668 
17:15	88.2	88.2	89.7	45	64.1	2	5	248	0.00	29.671 
17:20	87.6	87.6	89.1	46	64.2	3	6	248	0.00	29.675 
17:25	87.6	87.6	89.1	46	64.2	2	5	248	0.00	29.675 
17:30	87.8	87.8	89.7	47	65.0	2	4	270	0.00	29.679 
17:35	88.0	88.0	89.7	46	64.6	2	6	270	0.00	29.680 
17:40	87.8	87.8	89.4	46	64.4	2	5	248	0.00	29.683 
17:45	87.6	87.6	89.4	47	64.8	2	7	270	0.00	29.689 
17:50	87.6	87.6	89.1	46	64.2	3	6	270	0.00	29.691 
17:55	87.8	87.8	89.1	45	63.8	2	7	270	0.00	29.694 
18:00	87.8	87.8	89.1	45	63.8	3	7	270	0.00	29.695 
18:05	87.6	87.6	88.8	45	63.6	3	7	270	0.00	29.693 
18:10	87.6	87.6	89.1	46	64.2	2	5	248	0.00	29.696 
18:15	87.6	87.6	89.1	46	64.2	1	5	270	0.00	29.697 
18:20	87.6	87.6	88.8	45	63.6	3	7	270	0.00	29.701 
18:25	87.4	87.4	88.8	46	64.0	3	6	270	0.00	29.704 
18:30	87.4	87.4	88.8	46	64.0	3	6	270	0.00	29.705 
18:35	87.2	87.2	88.8	47	64.5	3	6	270	0.00	29.705 
18:40	86.5	86.5	88.1	48	64.4	3	7	270	0.00	29.706 
18:45	86.5	86.5	88.3	49	65.0	3	6	270	0.00	29.706 
18:50	86.3	86.3	88.0	49	64.9	2	7	248	0.00	29.706 
18:55	86.3	86.3	88.3	50	65.4	1	4	248	0.00	29.707 
19:00	86.1	86.1	88.0	50	65.3	2	6	248	0.00	29.707 
19:05	85.9	85.9	87.7	50	65.1	3	6	270	0.00	29.703 
19:10	85.7	85.7	87.7	51	65.5	2	5	270	0.00	29.704 
19:15	85.3	85.3	87.7	53	66.2	2	4	270	0.00	29.705 
19:20	85.1	85.1	87.4	53	66.0	2	5	270	0.00	29.707 
19:25	84.7	84.7	86.8	53	65.6	2	6	270	0.00	29.706 
19:30	84.5	84.5	86.7	54	66.0	2	4	248	0.00	29.705 
19:35	84.1	84.1	86.4	55	66.2	3	7	270	0.00	29.705 
19:40	84.1	84.1	86.4	55	66.2	2	6	248	0.00	29.702 
19:45	83.8	83.8	86.2	56	66.4	1	4	270	0.00	29.696 
19:50	83.6	83.6	86.1	57	66.7	2	4	270	0.00	29.692 
19:55	83.4	83.4	85.8	57	66.5	2	4	270	0.00	29.695 
20:00	83.2	83.2	85.8	58	66.9	2	5	248	0.00	29.693 
20:05	83.0	83.0	85.5	58	66.7	1	4	248	0.00	29.691 
20:10	82.8	82.8	85.4	59	67.0	1	2	248	0.00	29.690 
20:15	82.6	82.6	85.3	60	67.3	1	2	270	0.00	29.692 
20:20	82.6	82.6	85.3	60	67.3	1	3	270	0.00	29.694 
20:25	82.4	82.4	85.2	61	67.6	1	4	270	0.00	29.695 
20:30	82.0	82.0	84.8	62	67.7	1	2	270	0.00	29.701 
20:35	82.0	82.0	84.8	62	67.7	1	3	270	0.00	29.702 
20:40	82.0	82.0	84.8	62	67.7	2	3	248	0.00	29.706 
20:45	81.8	81.8	84.7	63	67.9	1	2	248	0.00	29.708 
20:50	81.6	81.6	84.4	63	67.8	2	6	248	0.00	29.709 
20:55	81.6	81.6	84.6	64	68.2	1	4	270	0.00	29.710 
21:00	81.6	81.6	84.4	63	67.8	2	5	270	0.00	29.710 
21:05	81.6	81.6	84.4	63	67.8	1	3	248	0.00	29.707 
21:10	81.4	81.4	84.3	64	68.0	1	3	248	0.00	29.705 
21:15	81.2	81.2	84.0	64	67.8	2	3	248	0.00	29.704 
21:20	81.2	81.2	84.0	64	67.8	1	4	248	0.00	29.703 
21:25	81.2	81.2	84.0	64	67.8	1	3	248	0.00	29.702 
21:30	81.1	81.1	84.0	65	68.2	1	2	248	0.00	29.699 
21:35	80.9	80.9	83.7	65	68.0	1	4	248	0.00	29.692 
21:40	81.1	81.1	84.0	65	68.2	2	5	248	0.00	29.691 
21:45	81.1	81.1	84.0	65	68.2	2	5	270	0.00	29.688 
21:50	80.9	80.9	83.7	65	68.0	1	3	248	0.00	29.687 
21:55	80.7	80.7	83.4	65	67.8	1	3	248	0.00	29.680 
22:00	80.5	80.5	83.1	65	67.6	1	4	248	0.00	29.681 
22:05	80.7	80.7	83.5	66	68.3	1	5	270	0.00	29.678 
22:10	80.5	80.5	83.2	66	68.1	2	6	248	0.00	29.678 
22:15	80.3	80.3	82.9	66	67.9	1	3	248	0.00	29.682 
22:20	80.3	80.3	83.0	67	68.3	1	3	292	0.00	29.683 
22:25	80.1	80.1	82.7	67	68.1	1	2	292	0.00	29.686 
22:30	80.1	80.1	82.9	68	68.6	1	5	248	0.00	29.685 
22:35	79.9	79.9	82.7	69	68.8	1	5	248	0.00	29.684 
22:40	79.9	79.9	82.7	69	68.8	1	4	248	0.00	29.683 
22:45	79.9	79.9	82.7	69	68.8	1	4	248	0.00	29.685 
22:50	80.1	80.1	83.0	69	69.0	1	5	248	0.00	29.686 
22:55	79.8	79.8	82.4	68	68.3	1	3	248	0.00	29.684 
23:00	79.2	79.2	81.1	62	65.0	3	6	270	0.00	29.690 
23:05	78.3	78.3	80.1	62	64.2	2	5	248	0.00	29.693 
23:10	77.6	77.6	79.4	64	64.4	1	4	248	0.00	29.698 
23:15	76.5	76.5	78.2	70	66.0	1	4	270	0.00	29.706 
23:20	74.9	74.9	74.9	75	66.4	1	3	248	0.02	29.708 
23:25	73.3	73.3	73.3	81	67.1	1	3	248	0.05	29.707 
23:30	72.3	72.3	72.3	85	67.5	1	2	270	0.02	29.707 
23:35	71.8	71.8	71.8	88	68.0	0	2	270	0.00	29.706 
23:40	71.5	71.5	71.5	89	68.1	0	1	270	0.00	29.704 
23:45	71.3	71.3	71.3	90	68.2	0	1	270	0.00	29.706 
23:50	71.3	71.3	71.3	91	68.5	0	1	270	0.00	29.707 
23:55	71.3	71.3	71.3	92	68.8	0	0	---	0.00	29.708 

CoCoRaHS
IN-AL-39
A2 Web Hosting
Creative Commons License
GoDaddy
Look for:

loaded 2017-12-10 21:33:55 • last modified 2010-11-18 10:43:29
Privacy PolicyDisclaimer
• wx.awcolley.com is powered by PmWiki v.2002016 •
• all content (unless otherwise noted) © 2017 A W Colley